createdAt,value
2019-05-25T00:00:56.545Z,19.50
2019-05-25T00:03:25.280Z,19.50
2019-05-25T00:05:54.018Z,19.50
2019-05-25T00:08:22.683Z,19.40
2019-05-25T00:10:51.442Z,19.40
2019-05-25T00:13:20.111Z,19.50
2019-05-25T00:15:49.050Z,19.50
2019-05-25T00:18:17.847Z,19.50
2019-05-25T00:20:46.541Z,19.40
2019-05-25T00:23:15.214Z,19.40
2019-05-25T00:25:43.893Z,19.40
2019-05-25T00:28:12.567Z,19.40
2019-05-25T00:30:41.386Z,19.50
2019-05-25T00:33:10.069Z,19.40
2019-05-25T00:35:38.891Z,19.40
2019-05-25T00:38:07.585Z,19.40
2019-05-25T00:40:36.239Z,19.40
2019-05-25T00:43:05.089Z,19.40
2019-05-25T00:45:33.825Z,19.30
2019-05-25T00:48:02.481Z,19.30
2019-05-25T00:50:32.733Z,19.20
2019-05-25T00:53:01.496Z,19.20
2019-05-25T00:55:30.419Z,19.20
2019-05-25T00:57:59.248Z,19.10
2019-05-25T01:00:27.981Z,19.10
2019-05-25T01:02:56.654Z,19.20
2019-05-25T01:05:25.338Z,19.20
2019-05-25T01:07:53.995Z,19.10
2019-05-25T01:10:22.763Z,19.00
2019-05-25T01:12:51.418Z,19.00
2019-05-25T01:15:20.450Z,19.00
2019-05-25T01:17:49.315Z,19.00
2019-05-25T01:20:18.771Z,19.00
2019-05-25T01:22:47.511Z,19.00
2019-05-25T01:25:17.206Z,18.90
2019-05-25T01:27:45.937Z,18.90
2019-05-25T01:30:15.350Z,18.90
2019-05-25T01:32:44.054Z,19.00
2019-05-25T01:35:12.841Z,19.00
2019-05-25T01:37:41.598Z,19.00
2019-05-25T01:40:11.011Z,19.00
2019-05-25T01:42:39.667Z,18.90
2019-05-25T01:45:09.368Z,18.90
2019-05-25T01:47:38.040Z,18.80
2019-05-25T01:50:07.233Z,18.90
2019-05-25T01:52:36.130Z,18.90
2019-05-25T01:55:12.308Z,18.80
2019-05-25T01:57:41.636Z,18.80
2019-05-25T02:00:14.794Z,18.70
2019-05-25T02:02:45.226Z,18.70
2019-05-25T02:05:23.689Z,18.70
2019-05-25T02:07:52.371Z,18.70
2019-05-25T02:10:21.473Z,18.60
2019-05-25T02:12:51.811Z,18.70
2019-05-25T02:15:20.791Z,18.60
2019-05-25T02:17:49.516Z,18.70
2019-05-25T02:20:18.752Z,18.60
2019-05-25T02:22:47.423Z,18.60
2019-05-25T02:25:18.545Z,18.60
2019-05-25T02:27:46.834Z,18.70
2019-05-25T02:30:19.206Z,18.70
2019-05-25T02:32:47.895Z,18.70
2019-05-25T02:35:25.486Z,18.80
2019-05-25T02:37:54.323Z,18.70
2019-05-25T02:40:23.129Z,18.70
2019-05-25T02:42:51.822Z,18.60
2019-05-25T02:45:20.610Z,18.70
2019-05-25T02:47:49.714Z,18.70
2019-05-25T02:50:19.673Z,18.70
2019-05-25T02:52:48.428Z,18.60
2019-05-25T02:55:32.442Z,18.60
2019-05-25T02:57:47.744Z,18.60
2019-05-25T03:00:17.145Z,18.60
2019-05-25T03:02:46.131Z,18.50
2019-05-25T03:05:15.848Z,18.40
2019-05-25T03:07:45.530Z,18.40
2019-05-25T03:10:14.950Z,18.40
2019-05-25T03:12:44.660Z,18.40
2019-05-25T03:15:13.758Z,18.30
2019-05-25T03:17:42.579Z,18.20
2019-05-25T03:20:11.682Z,18.20
2019-05-25T03:22:40.356Z,18.20
2019-05-25T03:25:09.194Z,18.10
2019-05-25T03:27:37.862Z,18.20
2019-05-25T03:30:10.133Z,18.30
2019-05-25T03:32:38.937Z,18.20
2019-05-25T03:35:08.264Z,18.20
2019-05-25T03:37:36.987Z,18.10
2019-05-25T03:40:07.583Z,18.00
2019-05-25T03:42:36.376Z,18.00
2019-05-25T03:45:08.532Z,18.10
2019-05-25T03:47:37.267Z,18.00
2019-05-25T03:50:06.375Z,18.00
2019-05-25T03:52:35.169Z,18.00
2019-05-25T03:55:05.306Z,18.00
2019-05-25T03:57:34.102Z,18.00
2019-05-25T04:00:02.839Z,18.00
2019-05-25T04:02:31.494Z,18.00
2019-05-25T04:05:00.179Z,18.00
2019-05-25T04:07:28.858Z,18.00
2019-05-25T04:09:57.595Z,17.90
2019-05-25T04:12:26.279Z,17.80
2019-05-25T04:14:54.948Z,17.70
2019-05-25T04:17:23.610Z,17.80
2019-05-25T04:19:52.288Z,17.70
2019-05-25T04:22:20.965Z,17.70
2019-05-25T04:24:49.704Z,17.80
2019-05-25T04:27:18.378Z,18.00
2019-05-25T04:29:47.122Z,18.00
2019-05-25T04:32:15.787Z,18.00
2019-05-25T04:34:44.467Z,18.10
2019-05-25T04:37:13.196Z,18.00
2019-05-25T04:39:41.881Z,18.10
2019-05-25T04:42:10.539Z,18.20
2019-05-25T04:44:39.222Z,18.20
2019-05-25T04:47:07.887Z,18.40
2019-05-25T04:49:36.580Z,18.50
2019-05-25T04:52:06.152Z,18.40
2019-05-25T04:54:34.802Z,18.40
2019-05-25T04:57:03.933Z,18.40
2019-05-25T04:59:32.952Z,18.60
2019-05-25T05:02:01.687Z,18.60
2019-05-25T05:04:30.334Z,18.80
2019-05-25T05:06:59.184Z,18.80
2019-05-25T05:09:27.883Z,18.90
2019-05-25T05:11:56.586Z,19.00
2019-05-25T05:14:25.558Z,19.10
2019-05-25T05:16:54.211Z,19.10
2019-05-25T05:19:22.951Z,19.10
2019-05-25T05:21:51.677Z,19.20
2019-05-25T05:24:20.332Z,19.40
2019-05-25T05:26:55.710Z,19.40
2019-05-25T05:29:19.337Z,19.40
2019-05-25T05:31:48.061Z,19.40
2019-05-25T05:34:16.817Z,19.40
2019-05-25T05:36:46.209Z,19.40
2019-05-25T05:39:15.541Z,19.50
2019-05-25T05:41:46.875Z,19.40
2019-05-25T05:44:18.701Z,19.20
2019-05-25T05:46:48.864Z,19.00
2019-05-25T05:49:18.562Z,18.80
2019-05-25T05:51:50.308Z,18.70
2019-05-25T05:54:20.579Z,18.70
2019-05-25T05:56:49.729Z,18.70
2019-05-25T05:59:18.530Z,18.80
2019-05-25T06:01:47.306Z,18.90
2019-05-25T06:04:16.065Z,19.10
2019-05-25T06:06:44.745Z,19.20
2019-05-25T06:09:13.484Z,19.40
2019-05-25T06:11:42.245Z,19.70
2019-05-25T06:14:11.010Z,19.80
2019-05-25T06:16:39.692Z,19.90
2019-05-25T06:19:08.350Z,19.90
2019-05-25T06:21:37.021Z,19.90
2019-05-25T06:24:07.752Z,20.00
2019-05-25T06:26:36.830Z,19.90
2019-05-25T06:29:05.646Z,20.10
2019-05-25T06:31:36.081Z,20.40
2019-05-25T06:34:05.039Z,20.70
2019-05-25T06:36:33.753Z,21.10
2019-05-25T06:39:02.490Z,21.30
2019-05-25T06:41:31.170Z,21.40
2019-05-25T06:43:59.943Z,21.40
2019-05-25T06:46:28.694Z,21.50
2019-05-25T06:48:57.471Z,21.80
2019-05-25T06:51:29.423Z,22.00
2019-05-25T06:53:58.097Z,22.40
2019-05-25T06:56:26.800Z,22.50
2019-05-25T06:58:55.498Z,22.40
2019-05-25T07:01:24.471Z,22.20
2019-05-25T07:03:53.216Z,22.30
2019-05-25T07:06:21.934Z,22.50
2019-05-25T07:08:50.697Z,22.70
2019-05-25T07:11:19.490Z,22.30
2019-05-25T07:13:48.183Z,22.30
2019-05-25T07:16:16.946Z,22.40
2019-05-25T07:18:45.813Z,22.60
2019-05-25T07:21:14.724Z,22.60
2019-05-25T07:23:43.375Z,22.60
2019-05-25T07:26:12.069Z,22.70
2019-05-25T07:28:41.307Z,23.00
2019-05-25T07:31:10.132Z,23.20
2019-05-25T07:33:38.855Z,23.20
2019-05-25T07:36:08.090Z,23.20
2019-05-25T07:38:36.926Z,23.40
2019-05-25T07:41:05.665Z,23.70
2019-05-25T07:43:34.474Z,23.90
2019-05-25T07:46:03.375Z,24.20
2019-05-25T07:48:32.116Z,24.60
2019-05-25T07:51:00.816Z,24.80
2019-05-25T07:53:29.706Z,24.50
2019-05-25T07:55:58.389Z,24.10
2019-05-25T07:58:27.083Z,24.20
2019-05-25T08:00:55.857Z,23.90
2019-05-25T08:03:24.562Z,24.00
2019-05-25T08:05:53.336Z,24.20
2019-05-25T08:08:22.241Z,24.50
2019-05-25T08:10:51.174Z,24.50
2019-05-25T08:13:19.911Z,24.60
2019-05-25T08:15:48.782Z,24.80
2019-05-25T08:18:17.604Z,24.90
2019-05-25T08:20:47.333Z,24.90
2019-05-25T08:23:20.924Z,24.90
2019-05-25T08:25:49.045Z,25.00
2019-05-25T08:28:31.706Z,24.80
2019-05-25T08:30:48.654Z,25.00
2019-05-25T08:33:19.424Z,25.40
2019-05-25T08:35:48.408Z,25.70
2019-05-25T08:38:18.843Z,25.80
2019-05-25T08:40:47.582Z,25.80
2019-05-25T08:43:16.519Z,25.80
2019-05-25T08:45:48.487Z,25.80
2019-05-25T08:48:17.349Z,25.80
2019-05-25T08:50:46.238Z,25.90
2019-05-25T08:53:15.084Z,25.80
2019-05-25T08:55:50.566Z,25.80
2019-05-25T08:58:22.845Z,26.00
2019-05-25T09:01:00.669Z,25.90
2019-05-25T09:03:29.501Z,26.00
2019-05-25T09:22:01.374Z,26.20
2019-05-25T09:31:14.963Z,26.80
2019-05-25T09:34:09.168Z,27.20
2019-05-25T09:36:26.262Z,27.60
2019-05-25T09:39:00.057Z,27.70
2019-05-25T09:44:33.046Z,27.30
2019-05-25T09:49:49.489Z,27.60
2019-05-25T09:52:20.039Z,27.60
2019-05-25T09:54:56.629Z,27.90
2019-05-25T09:57:27.106Z,28.10
2019-05-25T10:00:13.171Z,28.20
2019-05-25T10:02:45.128Z,28.10
2019-05-25T10:06:11.526Z,28.30
2019-05-25T10:08:41.406Z,28.30
2019-05-25T10:11:11.414Z,28.00
2019-05-25T10:13:45.978Z,27.60
2019-05-25T10:16:17.244Z,27.40
2019-05-25T10:18:51.929Z,27.20
2019-05-25T10:21:20.554Z,26.70
2019-05-25T10:23:55.423Z,26.40
2019-05-25T10:26:26.343Z,26.10
2019-05-25T10:29:00.717Z,26.20
2019-05-25T10:31:29.646Z,26.20
2019-05-25T10:34:01.476Z,26.00
2019-05-25T10:36:49.248Z,26.00
2019-05-25T10:39:37.063Z,25.80
2019-05-25T10:42:25.746Z,25.50
2019-05-25T10:44:57.519Z,25.30
2019-05-25T10:47:26.835Z,25.10
2019-05-25T10:49:56.062Z,25.30
2019-05-25T10:52:27.585Z,25.20
2019-05-25T10:54:56.365Z,25.50
2019-05-25T10:57:25.216Z,25.50
2019-05-25T10:59:55.607Z,25.50
2019-05-25T11:02:24.360Z,25.50
2019-05-25T11:04:53.063Z,25.40
2019-05-25T11:07:21.754Z,24.90
2019-05-25T11:09:50.728Z,24.70
2019-05-25T11:12:19.604Z,24.70
2019-05-25T11:14:49.898Z,24.80
2019-05-25T11:17:18.670Z,24.70
2019-05-25T11:19:47.411Z,24.50
2019-05-25T11:22:16.919Z,24.50
2019-05-25T11:24:45.900Z,24.50
2019-05-25T11:27:14.583Z,24.60
2019-05-25T11:29:43.313Z,24.60
2019-05-25T11:32:12.066Z,24.60
2019-05-25T11:34:41.078Z,24.60
2019-05-25T11:37:10.087Z,24.60
2019-05-25T11:39:39.063Z,24.40
2019-05-25T11:42:07.919Z,24.30
2019-05-25T11:44:36.722Z,24.20
2019-05-25T11:47:05.728Z,24.30
2019-05-25T11:49:34.796Z,24.30
2019-05-25T11:52:08.921Z,24.00
2019-05-25T11:54:37.815Z,23.10
2019-05-25T11:57:12.575Z,22.70
2019-05-25T11:59:41.736Z,22.40
2019-05-25T12:02:10.575Z,22.40
2019-05-25T12:04:39.717Z,22.20
2019-05-25T12:07:08.987Z,22.10
2019-05-25T12:10:02.893Z,22.10
2019-05-25T12:12:47.175Z,21.40
2019-05-25T12:15:24.224Z,20.30
2019-05-25T12:17:59.284Z,19.80
2019-05-25T12:20:29.477Z,19.50
2019-05-25T12:23:01.895Z,19.40
2019-05-25T12:25:32.283Z,19.40
2019-05-25T12:28:01.071Z,19.30
2019-05-25T12:30:40.496Z,19.10
2019-05-25T12:33:08.468Z,18.90
2019-05-25T12:35:40.839Z,18.70
2019-05-25T12:38:11.078Z,18.50
2019-05-25T12:40:53.700Z,18.50
2019-05-25T12:43:17.945Z,18.60
2019-05-25T12:45:47.267Z,18.60
2019-05-25T12:48:16.268Z,18.60
2019-05-25T12:50:52.575Z,18.50
2019-05-25T12:53:26.005Z,18.50
2019-05-25T12:58:32.820Z,18.50
2019-05-25T13:11:18.894Z,18.50
2019-05-25T13:26:34.082Z,18.30
2019-05-25T13:29:16.351Z,18.20
2019-05-25T13:34:59.025Z,18.30
2019-05-25T13:46:35.403Z,18.60
2019-05-25T13:52:20.357Z,18.70
2019-05-25T13:57:49.258Z,18.80
2019-05-25T14:00:18.497Z,18.90
2019-05-25T14:02:47.453Z,18.90
2019-05-25T14:05:30.426Z,18.90
2019-05-25T14:08:01.467Z,18.90
2019-05-25T14:22:59.304Z,19.00
2019-05-25T14:25:31.165Z,19.20
2019-05-25T14:28:08.302Z,19.40
2019-05-25T14:30:39.292Z,19.60
2019-05-25T14:33:08.171Z,19.80
2019-05-25T14:35:36.935Z,19.70
2019-05-25T14:38:08.942Z,19.90
2019-05-25T14:40:37.839Z,19.90
2019-05-25T14:43:06.572Z,20.00
2019-05-25T14:48:23.559Z,20.40
2019-05-25T14:50:52.279Z,20.40
2019-05-25T14:53:35.356Z,20.40
2019-05-25T14:56:06.613Z,20.40
2019-05-25T14:58:35.700Z,20.50
2019-05-25T15:01:06.489Z,20.50
2019-05-25T15:03:35.525Z,20.80
2019-05-25T15:06:08.836Z,21.20
2019-05-25T15:08:37.846Z,21.50
2019-05-25T15:11:06.676Z,21.60
2019-05-25T15:13:43.839Z,21.70
2019-05-25T15:16:13.161Z,21.70
2019-05-25T15:18:51.090Z,21.80
2019-05-25T15:21:26.380Z,21.80
2019-05-25T15:24:02.811Z,21.80
2019-05-25T15:26:31.764Z,21.60
2019-05-25T15:29:11.458Z,21.50
2019-05-25T15:32:19.011Z,21.50
2019-05-25T15:34:34.967Z,21.50
2019-05-25T15:37:08.162Z,21.20
2019-05-25T15:39:43.017Z,21.00
2019-05-25T15:42:18.458Z,21.00
2019-05-25T15:44:48.869Z,20.80
2019-05-25T15:47:40.605Z,20.90
2019-05-25T15:50:11.809Z,20.80
2019-05-25T15:52:39.975Z,20.70
2019-05-25T15:55:16.014Z,20.60
2019-05-25T15:58:01.974Z,20.60
2019-05-25T16:00:56.442Z,20.60
2019-05-25T16:03:27.024Z,20.50
2019-05-25T16:05:55.840Z,20.60
2019-05-25T16:08:28.884Z,20.70
2019-05-25T16:11:06.855Z,20.80
2019-05-25T16:13:43.100Z,20.90
2019-05-25T16:17:04.384Z,21.20
2019-05-25T16:25:24.959Z,21.70
2019-05-25T16:27:55.442Z,22.00
2019-05-25T16:30:38.746Z,22.20
2019-05-25T16:36:20.885Z,21.70
2019-05-25T16:38:55.190Z,21.60
2019-05-25T16:41:35.047Z,21.60
2019-05-25T16:44:29.699Z,21.40
2019-05-25T16:50:08.088Z,21.10
2019-05-25T16:52:48.368Z,21.10
2019-05-25T16:55:17.446Z,20.90
2019-05-25T16:57:52.245Z,20.80
2019-05-25T17:00:30.660Z,20.70
2019-05-25T17:03:07.052Z,20.60
2019-05-25T17:05:37.596Z,20.60
2019-05-25T17:08:18.964Z,20.50
2019-05-25T17:10:52.770Z,20.50
2019-05-25T17:13:37.195Z,20.50
2019-05-25T17:19:01.980Z,20.40
2019-05-25T17:21:30.902Z,20.30
2019-05-25T17:24:01.345Z,20.10
2019-05-25T17:26:30.247Z,20.00
2019-05-25T17:28:59.138Z,19.90
2019-05-25T17:31:29.462Z,19.90
2019-05-25T17:33:58.459Z,19.90
2019-05-25T17:36:28.166Z,19.80
2019-05-25T17:38:57.176Z,19.80
2019-05-25T17:41:34.752Z,19.70
2019-05-25T17:44:03.658Z,19.70
2019-05-25T17:46:32.544Z,19.70
2019-05-25T17:49:07.527Z,19.70
2019-05-25T17:51:40.616Z,19.70
2019-05-25T17:54:09.492Z,19.60
2019-05-25T17:56:38.631Z,19.50
2019-05-25T17:59:07.429Z,19.50
2019-05-25T18:04:39.465Z,19.50
2019-05-25T18:07:05.791Z,19.60
2019-05-25T18:09:34.628Z,19.50
2019-05-25T18:12:03.629Z,19.50
2019-05-25T18:14:32.437Z,19.50
2019-05-25T18:17:01.298Z,19.60
2019-05-25T18:19:30.097Z,19.60
2019-05-25T18:21:59.160Z,19.50
2019-05-25T18:24:29.720Z,19.50
2019-05-25T18:26:58.737Z,19.40
2019-05-25T18:29:28.006Z,19.30
2019-05-25T18:31:56.777Z,19.20
2019-05-25T18:34:25.595Z,19.20
2019-05-25T18:36:58.208Z,19.10
2019-05-25T18:39:26.947Z,19.10
2019-05-25T18:41:55.679Z,19.10
2019-05-25T18:44:24.366Z,19.00
2019-05-25T18:46:53.184Z,19.00
2019-05-25T18:49:21.973Z,19.00
2019-05-25T18:51:50.653Z,19.10
2019-05-25T18:54:19.416Z,19.10
2019-05-25T18:56:48.214Z,19.00
2019-05-25T18:59:17.508Z,19.00
2019-05-25T19:01:46.494Z,19.00
2019-05-25T19:04:42.176Z,18.70
2019-05-25T19:06:56.356Z,18.70
2019-05-25T19:09:25.408Z,18.50
2019-05-25T19:11:54.218Z,18.30
2019-05-25T19:14:23.078Z,18.20
2019-05-25T19:17:03.531Z,18.00
2019-05-25T19:22:30.203Z,17.80
2019-05-25T19:24:59.107Z,17.90
2019-05-25T19:27:31.993Z,17.90
2019-05-25T19:30:04.571Z,17.90
2019-05-25T19:32:38.047Z,18.00
2019-05-25T19:35:07.857Z,18.10
2019-05-25T19:37:36.871Z,18.20
2019-05-25T19:40:09.061Z,18.30
2019-05-25T19:42:38.009Z,18.30
2019-05-25T19:45:09.495Z,18.30
2019-05-25T19:47:38.580Z,18.20
2019-05-25T19:50:12.052Z,18.20
2019-05-25T19:52:40.955Z,18.20
2019-05-25T19:55:09.996Z,18.10
2019-05-25T19:57:39.865Z,18.00
2019-05-25T20:00:13.476Z,18.00
2019-05-25T20:02:43.973Z,18.00
2019-05-25T20:05:16.944Z,18.00
2019-05-25T20:07:46.658Z,18.00
2019-05-25T20:10:21.838Z,18.00
2019-05-25T20:12:50.846Z,17.90
2019-05-25T20:15:25.427Z,17.80
2019-05-25T20:17:54.439Z,17.70
2019-05-25T20:20:25.483Z,17.70
2019-05-25T20:22:57.439Z,17.80
2019-05-25T20:25:26.224Z,17.80
2019-05-25T20:27:56.809Z,17.70
2019-05-25T20:30:29.056Z,17.70
2019-05-25T20:33:02.682Z,17.70
2019-05-25T20:35:33.370Z,17.70
2019-05-25T20:38:02.192Z,17.70
2019-05-25T20:40:31.568Z,17.60
2019-05-25T20:43:00.400Z,17.50
2019-05-25T20:45:31.497Z,17.60
2019-05-25T20:48:03.452Z,17.60
2019-05-25T20:50:32.521Z,17.60
2019-05-25T20:53:01.346Z,17.60
2019-05-25T20:55:32.181Z,17.60
2019-05-25T20:58:01.116Z,17.60
2019-05-25T21:00:30.518Z,17.50
2019-05-25T21:03:06.627Z,17.50
2019-05-25T21:05:49.133Z,17.50
2019-05-25T21:08:11.946Z,17.50
2019-05-25T21:10:40.770Z,17.50
2019-05-25T21:13:10.056Z,17.50
2019-05-25T21:15:38.970Z,17.40
2019-05-25T21:18:08.100Z,17.40
2019-05-25T21:20:37.150Z,17.30
2019-05-25T21:23:06.135Z,17.40
2019-05-25T21:25:35.354Z,17.50
2019-05-25T21:28:04.382Z,17.60
2019-05-25T21:30:33.334Z,17.60
2019-05-25T21:33:02.447Z,17.70
2019-05-25T21:35:31.333Z,17.60
2019-05-25T21:38:09.073Z,17.60
2019-05-25T21:40:38.322Z,17.50
2019-05-25T21:43:07.662Z,17.50
2019-05-25T21:45:38.362Z,17.50
2019-05-25T21:48:07.158Z,17.50
2019-05-25T21:50:36.033Z,17.40
2019-05-25T21:53:05.122Z,17.40
2019-05-25T21:55:36.816Z,17.40
2019-05-25T21:58:05.799Z,17.50
2019-05-25T22:00:36.387Z,17.60
2019-05-25T22:03:05.489Z,17.70
2019-05-25T22:05:35.936Z,17.70
2019-05-25T22:08:04.908Z,17.70
2019-05-25T22:10:33.756Z,17.70
2019-05-25T22:13:02.628Z,17.80
2019-05-25T22:15:31.737Z,17.70
2019-05-25T22:18:00.402Z,17.80
2019-05-25T22:20:34.272Z,17.90
2019-05-25T22:23:04.961Z,17.90
2019-05-25T22:25:36.623Z,17.90
2019-05-25T22:28:05.759Z,17.90
2019-05-25T22:30:34.481Z,17.90
2019-05-25T22:33:03.372Z,17.90
2019-05-25T22:35:32.120Z,17.90
2019-05-25T22:38:01.007Z,17.90
2019-05-25T22:40:29.771Z,17.80
2019-05-25T22:42:58.611Z,17.70
2019-05-25T22:45:27.497Z,17.60
2019-05-25T22:47:56.469Z,17.60
2019-05-25T22:50:25.388Z,17.50
2019-05-25T22:52:54.232Z,17.50
2019-05-25T22:55:23.273Z,17.50
2019-05-25T22:57:52.723Z,17.50
2019-05-25T23:00:22.925Z,17.60
2019-05-25T23:02:51.766Z,17.70
2019-05-25T23:05:20.880Z,17.70
2019-05-25T23:07:49.719Z,17.70
2019-05-25T23:10:18.646Z,17.70
2019-05-25T23:12:47.382Z,17.70
2019-05-25T23:15:16.319Z,17.60
2019-05-25T23:17:45.080Z,17.60
2019-05-25T23:20:14.007Z,17.60
2019-05-25T23:22:42.826Z,17.60
2019-05-25T23:25:11.835Z,17.40
2019-05-25T23:27:43.596Z,17.50
2019-05-25T23:30:12.735Z,17.50
2019-05-25T23:32:41.741Z,17.40
2019-05-25T23:35:10.936Z,17.50
2019-05-25T23:37:39.848Z,17.50
2019-05-25T23:40:09.095Z,17.40
2019-05-25T23:42:37.926Z,17.50
2019-05-25T23:45:08.106Z,17.40
2019-05-25T23:47:36.878Z,17.30
2019-05-25T23:50:08.843Z,17.30
2019-05-25T23:52:40.344Z,17.30
2019-05-25T23:55:09.601Z,17.30
2019-05-25T23:57:42.540Z,17.30
